createdAt,value
2022-11-20T00:00:27.804Z,101315.69
2022-11-20T00:02:55.436Z,101329.59
2022-11-20T00:05:22.772Z,101340.94
2022-11-20T00:07:50.391Z,101338.94
2022-11-20T00:10:18.576Z,101339.97
2022-11-20T00:12:46.093Z,101342.34
2022-11-20T00:15:14.191Z,101348.00
2022-11-20T00:17:43.774Z,101348.56
2022-11-20T00:20:11.483Z,101346.03
2022-11-20T00:22:38.816Z,101341.88
2022-11-20T00:25:06.604Z,101348.69
2022-11-20T00:27:33.971Z,101361.38
2022-11-20T00:30:01.569Z,101385.00
2022-11-20T00:32:29.086Z,101400.13
2022-11-20T00:34:56.778Z,101387.75
2022-11-20T00:37:24.082Z,101373.66
2022-11-20T00:39:51.506Z,101368.00
2022-11-20T00:42:18.992Z,101357.38
2022-11-20T00:44:46.403Z,101342.63
2022-11-20T00:47:14.067Z,101349.06
2022-11-20T00:49:41.343Z,101342.31
2022-11-20T00:52:09.548Z,101352.94
2022-11-20T00:54:37.026Z,101336.88
2022-11-20T00:57:04.361Z,101329.38
2022-11-20T00:59:32.660Z,101314.91
2022-11-20T01:01:59.985Z,101295.16
2022-11-20T01:04:27.298Z,101298.75
2022-11-20T01:06:54.843Z,101302.16
2022-11-20T01:09:22.341Z,101302.16
2022-11-20T01:11:50.098Z,101307.34
2022-11-20T01:14:18.482Z,101316.53
2022-11-20T01:16:49.720Z,101309.34
2022-11-20T01:19:19.402Z,101300.56
2022-11-20T01:21:47.571Z,101301.66
2022-11-20T01:24:16.439Z,101296.47
2022-11-20T01:26:47.981Z,101302.72
2022-11-20T01:29:16.722Z,101302.16
2022-11-20T01:31:44.197Z,101290.75
2022-11-20T01:34:12.385Z,101281.91
2022-11-20T01:36:39.946Z,101294.72
2022-11-20T01:39:08.516Z,101298.47
2022-11-20T01:41:55.450Z,101298.28
2022-11-20T01:44:41.134Z,101290.06
2022-11-20T01:47:08.598Z,101299.50
2022-11-20T01:49:38.566Z,101284.75
2022-11-20T01:52:08.769Z,101257.59
2022-11-20T01:54:37.452Z,101266.69
2022-11-20T01:57:04.801Z,101256.84
2022-11-20T01:59:32.604Z,101249.56
2022-11-20T02:02:00.369Z,101244.09
2022-11-20T02:04:29.217Z,101256.28
2022-11-20T02:06:58.583Z,101268.44
2022-11-20T02:09:26.147Z,101282.09
2022-11-20T02:11:53.561Z,101296.34
2022-11-20T02:14:21.097Z,101297.75
2022-11-20T02:16:49.023Z,101296.69
2022-11-20T02:19:29.174Z,101288.56
2022-11-20T02:22:11.962Z,101287.00
2022-11-20T02:24:39.305Z,101295.53
2022-11-20T02:27:16.329Z,101304.59
2022-11-20T02:29:54.209Z,101315.94
2022-11-20T02:32:25.562Z,101299.84
2022-11-20T02:34:52.974Z,101290.22
2022-11-20T02:37:20.876Z,101285.13
2022-11-20T02:39:49.166Z,101302.22
2022-11-20T02:42:16.493Z,101312.13
2022-11-20T02:44:43.823Z,101295.69
2022-11-20T02:47:12.677Z,101276.25
2022-11-20T02:49:41.468Z,101259.03
2022-11-20T02:52:09.168Z,101249.19
2022-11-20T02:54:37.025Z,101249.56
2022-11-20T02:57:05.242Z,101269.84
2022-11-20T02:59:33.369Z,101279.13
2022-11-20T03:02:00.914Z,101291.41
2022-11-20T03:04:28.233Z,101282.16
2022-11-20T03:06:56.049Z,101294.59
2022-11-20T03:09:23.944Z,101298.97
2022-11-20T03:11:51.468Z,101292.66
2022-11-20T03:14:19.111Z,101283.75
2022-11-20T03:16:46.528Z,101279.91
2022-11-20T03:19:13.844Z,101285.84
2022-11-20T03:21:41.234Z,101273.25
2022-11-20T03:24:08.707Z,101266.16
2022-11-20T03:26:36.566Z,101276.28
2022-11-20T03:29:04.768Z,101277.59
2022-11-20T03:31:41.353Z,101285.00
2022-11-20T03:34:09.722Z,101292.94
2022-11-20T03:36:40.596Z,101293.56
2022-11-20T03:39:08.140Z,101322.91
2022-11-20T03:41:39.512Z,101327.78
2022-11-20T03:44:07.317Z,101331.88
2022-11-20T03:46:35.605Z,101347.13
2022-11-20T03:49:06.238Z,101348.69
2022-11-20T03:51:34.808Z,101343.72
2022-11-20T03:54:03.265Z,101343.47
2022-11-20T03:56:31.399Z,101346.34
2022-11-20T03:58:59.076Z,101351.03
2022-11-20T04:01:31.110Z,101347.88
2022-11-20T04:03:58.747Z,101340.84
2022-11-20T04:06:27.400Z,101349.69
2022-11-20T04:08:57.021Z,101344.34
2022-11-20T04:11:26.874Z,101333.25
2022-11-20T04:13:55.001Z,101332.38
2022-11-20T04:16:22.357Z,101322.47
2022-11-20T04:18:54.091Z,101315.97
2022-11-20T04:21:22.902Z,101298.50
2022-11-20T04:23:50.583Z,101310.13
2022-11-20T04:26:17.965Z,101291.00
2022-11-20T04:28:45.383Z,101294.25
2022-11-20T04:31:13.784Z,101289.19
2022-11-20T04:33:41.286Z,101281.09
2022-11-20T04:36:10.976Z,101297.91
2022-11-20T04:38:38.444Z,101286.69
2022-11-20T04:41:08.901Z,101291.91
2022-11-20T04:43:36.435Z,101300.44
2022-11-20T04:46:03.790Z,101297.56
2022-11-20T04:48:34.836Z,101307.06
2022-11-20T04:51:04.064Z,101294.78
2022-11-20T04:53:32.623Z,101277.22
2022-11-20T04:56:00.516Z,101274.03
2022-11-20T04:58:28.091Z,101284.69
2022-11-20T05:01:01.396Z,101300.69
2022-11-20T05:03:28.697Z,101318.38
2022-11-20T05:05:57.167Z,101311.91
2022-11-20T05:08:24.458Z,101314.06
2022-11-20T05:10:54.160Z,101303.66
2022-11-20T05:13:21.889Z,101299.09
2022-11-20T05:15:51.038Z,101288.34
2022-11-20T05:18:20.016Z,101310.47
2022-11-20T05:20:47.472Z,101299.63
2022-11-20T05:23:15.208Z,101289.78
2022-11-20T05:25:42.760Z,101304.50
2022-11-20T05:28:10.087Z,101315.63
2022-11-20T05:30:38.279Z,101321.34
2022-11-20T05:33:06.079Z,101323.97
2022-11-20T05:35:33.439Z,101317.66
2022-11-20T05:38:01.102Z,101321.22
2022-11-20T05:40:28.569Z,101330.81
2022-11-20T05:42:56.365Z,101320.03
2022-11-20T05:45:24.430Z,101286.03
2022-11-20T05:47:51.952Z,101278.50
2022-11-20T05:50:19.555Z,101289.91
2022-11-20T05:52:46.929Z,101294.00
2022-11-20T05:55:14.316Z,101268.44
2022-11-20T05:57:41.797Z,101261.22
2022-11-20T06:00:09.369Z,101256.81
2022-11-20T06:02:37.230Z,101255.63
2022-11-20T06:05:04.829Z,101245.84
2022-11-20T06:07:33.999Z,101252.94
2022-11-20T06:10:01.613Z,101258.66
2022-11-20T06:12:31.954Z,101256.28
2022-11-20T06:14:59.807Z,101257.91
2022-11-20T06:17:27.669Z,101266.13
2022-11-20T06:19:55.703Z,101269.75
2022-11-20T06:22:23.520Z,101269.75
2022-11-20T06:24:50.958Z,101265.28
2022-11-20T06:27:18.527Z,101278.50
2022-11-20T06:29:46.100Z,101292.72
2022-11-20T06:32:13.523Z,101286.09
2022-11-20T06:34:41.456Z,101275.97
2022-11-20T06:37:08.869Z,101258.53
2022-11-20T06:39:36.309Z,101250.84
2022-11-20T06:42:03.883Z,101247.41
2022-11-20T06:44:31.489Z,101244.19
2022-11-20T06:46:58.807Z,101242.78
2022-11-20T06:49:26.637Z,101238.72
2022-11-20T06:51:54.557Z,101243.97
2022-11-20T06:54:22.080Z,101233.84
2022-11-20T06:56:49.923Z,101224.59
2022-11-20T06:59:17.331Z,101244.41
2022-11-20T07:01:44.813Z,101258.03
2022-11-20T07:04:12.356Z,101249.47
2022-11-20T07:06:41.062Z,101241.03
2022-11-20T07:09:12.594Z,101240.78
2022-11-20T07:11:40.690Z,101246.31
2022-11-20T07:14:08.204Z,101260.81
2022-11-20T07:16:35.562Z,101274.47
2022-11-20T07:19:06.087Z,101284.41
2022-11-20T07:21:33.724Z,101285.16
2022-11-20T07:24:01.017Z,101297.97
2022-11-20T07:26:29.288Z,101321.22
2022-11-20T07:28:56.906Z,101320.75
2022-11-20T07:31:24.293Z,101310.09
2022-11-20T07:33:51.946Z,101293.03
2022-11-20T07:36:19.758Z,101297.88
2022-11-20T07:38:47.821Z,101292.97
2022-11-20T07:41:15.272Z,101317.31
2022-11-20T07:43:43.550Z,101321.38
2022-11-20T07:46:11.209Z,101285.22
2022-11-20T07:48:38.917Z,101269.78
2022-11-20T07:51:06.397Z,101268.63
2022-11-20T07:53:34.384Z,101274.63
2022-11-20T07:56:02.424Z,101264.06
2022-11-20T07:58:30.200Z,101278.63
2022-11-20T08:00:57.608Z,101308.78
2022-11-20T08:03:25.362Z,101304.81
2022-11-20T08:05:53.614Z,101273.53
2022-11-20T08:08:22.474Z,101245.75
2022-11-20T08:10:49.760Z,101248.56
2022-11-20T08:13:36.932Z,101246.28
2022-11-20T08:16:04.553Z,101238.72
2022-11-20T08:18:32.842Z,101237.41
2022-11-20T08:21:03.139Z,101232.44
2022-11-20T08:23:31.329Z,101228.38
2022-11-20T08:25:58.620Z,101229.06
2022-11-20T08:28:26.014Z,101225.03
2022-11-20T08:30:58.353Z,101219.69
2022-11-20T08:33:25.882Z,101199.88
2022-11-20T08:35:53.599Z,101184.41
2022-11-20T08:38:21.119Z,101183.06
2022-11-20T08:41:10.407Z,101184.03
2022-11-20T08:43:38.184Z,101164.59
2022-11-20T08:46:05.683Z,101151.47
2022-11-20T08:48:33.148Z,101147.22
2022-11-20T08:51:00.966Z,101135.53
2022-11-20T08:53:28.561Z,101140.81
2022-11-20T08:55:55.877Z,101135.91
2022-11-20T08:58:23.253Z,101136.31
2022-11-20T09:00:50.746Z,101138.59
2022-11-20T09:03:18.391Z,101129.53
2022-11-20T09:05:45.725Z,101119.84
2022-11-20T09:08:13.259Z,101117.19
2022-11-20T09:10:43.585Z,101098.44
2022-11-20T09:13:11.607Z,101090.50
2022-11-20T09:15:39.597Z,101093.69
2022-11-20T09:18:06.928Z,101079.19
2022-11-20T09:20:34.622Z,101080.50
2022-11-20T09:23:02.610Z,101082.97
2022-11-20T09:25:30.001Z,101093.16
2022-11-20T09:27:59.191Z,101088.91
2022-11-20T09:30:26.791Z,101087.78
2022-11-20T09:32:54.109Z,101101.44
2022-11-20T09:35:21.629Z,101094.53
2022-11-20T09:37:50.401Z,101088.44
2022-11-20T09:40:21.751Z,101080.41
2022-11-20T09:43:02.112Z,101078.25
2022-11-20T09:45:31.812Z,101070.16
2022-11-20T09:48:05.225Z,101064.38
2022-11-20T09:50:34.003Z,101051.53
2022-11-20T09:53:10.795Z,101035.63
2022-11-20T09:55:38.388Z,101034.63
2022-11-20T09:58:09.003Z,101032.25
2022-11-20T10:00:36.993Z,101025.72
2022-11-20T10:03:12.995Z,101037.28
2022-11-20T10:05:46.706Z,101028.13
2022-11-20T10:08:15.266Z,101039.16
2022-11-20T10:11:05.999Z,101035.38
2022-11-20T10:13:40.886Z,101031.31
2022-11-20T10:16:27.781Z,101026.22
2022-11-20T10:18:55.470Z,101020.50
2022-11-20T10:21:22.781Z,101021.31
2022-11-20T10:23:50.126Z,101022.81
2022-11-20T10:26:18.601Z,101008.09
2022-11-20T10:28:57.390Z,100988.19
2022-11-20T10:31:33.332Z,100974.66
2022-11-20T10:34:22.185Z,100968.09
2022-11-20T10:36:50.991Z,100961.47
2022-11-20T10:39:24.215Z,100955.41
2022-11-20T10:41:53.144Z,100946.03
2022-11-20T10:44:39.720Z,100938.97
2022-11-20T10:47:10.090Z,100930.38
2022-11-20T10:49:39.335Z,100931.84
2022-11-20T10:52:25.595Z,100934.66
2022-11-20T10:54:59.253Z,100926.53
2022-11-20T10:57:45.628Z,100888.13
2022-11-20T11:00:14.527Z,100908.81
2022-11-20T11:02:48.820Z,100898.91
2022-11-20T11:05:31.421Z,100917.88
2022-11-20T11:07:59.142Z,100930.44
2022-11-20T11:10:29.303Z,100922.59
2022-11-20T11:12:56.764Z,100915.06
2022-11-20T11:15:28.443Z,100914.31
2022-11-20T11:17:55.935Z,100910.81
2022-11-20T11:20:24.048Z,100902.78
2022-11-20T11:22:58.340Z,100901.69
2022-11-20T11:25:34.721Z,100904.47
2022-11-20T11:28:06.260Z,100896.94
2022-11-20T11:30:43.476Z,100888.38
2022-11-20T11:33:12.323Z,100870.34
2022-11-20T11:35:48.243Z,100886.00
2022-11-20T11:38:20.616Z,100880.72
2022-11-20T11:40:47.942Z,100885.31
2022-11-20T11:43:38.325Z,100885.78
2022-11-20T11:46:26.335Z,100909.13
2022-11-20T11:48:59.968Z,100901.75
2022-11-20T11:51:39.186Z,100894.97
2022-11-20T11:54:11.791Z,100892.72
2022-11-20T11:56:40.514Z,100891.53
2022-11-20T11:59:08.114Z,100891.16
2022-11-20T12:01:35.752Z,100887.22
2022-11-20T12:04:05.736Z,100901.28
2022-11-20T12:06:33.441Z,100898.72
2022-11-20T12:09:02.596Z,100892.41
2022-11-20T12:11:30.291Z,100897.78
2022-11-20T12:13:59.545Z,100881.31
2022-11-20T12:16:27.049Z,100879.31
2022-11-20T12:18:54.851Z,100868.97
2022-11-20T12:21:22.282Z,100851.25
2022-11-20T12:23:55.923Z,100868.13
2022-11-20T12:26:32.421Z,100863.56
2022-11-20T12:29:15.399Z,100865.47
2022-11-20T12:31:51.092Z,100864.47
2022-11-20T12:34:29.000Z,100859.84
2022-11-20T12:36:57.283Z,100858.03
2022-11-20T12:39:40.962Z,100856.16
2022-11-20T12:42:37.775Z,100855.09
2022-11-20T12:45:11.015Z,100846.28
2022-11-20T12:47:47.530Z,100837.38
2022-11-20T12:50:15.325Z,100835.13
2022-11-20T12:52:56.911Z,100844.06
2022-11-20T12:55:29.774Z,100843.13
2022-11-20T12:57:58.038Z,100839.25
2022-11-20T13:00:25.772Z,100835.50
2022-11-20T13:02:54.161Z,100830.66
2022-11-20T13:05:21.752Z,100826.97
2022-11-20T13:07:49.325Z,100816.75
2022-11-20T13:10:34.876Z,100803.91
2022-11-20T13:13:04.911Z,100805.06
2022-11-20T13:15:37.802Z,100810.16
2022-11-20T13:18:08.301Z,100809.97
2022-11-20T13:20:35.790Z,100787.81
2022-11-20T13:23:03.113Z,100779.47
2022-11-20T13:25:31.338Z,100786.41
2022-11-20T13:27:59.618Z,100784.22
2022-11-20T13:30:27.950Z,100782.63
2022-11-20T13:33:02.294Z,100781.63
2022-11-20T13:35:44.339Z,100775.47
2022-11-20T13:38:12.443Z,100770.16
2022-11-20T13:41:00.007Z,100763.97
2022-11-20T13:43:27.459Z,100765.84
2022-11-20T13:45:55.473Z,100780.78
2022-11-20T13:48:23.603Z,100798.28
2022-11-20T16:49:04.503Z,100572.06
2022-11-20T16:51:32.894Z,100554.47
2022-11-20T16:54:04.642Z,100557.25
2022-11-20T16:56:32.132Z,100546.97
2022-11-20T16:58:59.829Z,100531.75
2022-11-20T17:01:28.782Z,100534.66
2022-11-20T17:03:57.273Z,100532.69
2022-11-20T17:06:25.651Z,100525.34
2022-11-20T17:08:54.166Z,100519.59
2022-11-20T17:11:21.539Z,100514.13
2022-11-20T17:13:48.957Z,100530.13
2022-11-20T17:16:19.840Z,100527.91
2022-11-20T17:18:47.355Z,100530.03
2022-11-20T17:21:15.581Z,100513.84
2022-11-20T17:23:44.487Z,100508.59
2022-11-20T17:26:17.676Z,100508.28
2022-11-20T17:28:46.955Z,100501.19
2022-11-20T17:31:15.866Z,100498.84
2022-11-20T17:33:45.585Z,100490.28
2022-11-20T17:36:14.427Z,100487.16
2022-11-20T17:38:41.998Z,100489.63
2022-11-20T17:41:10.288Z,100480.00
2022-11-20T17:43:38.176Z,100484.03
2022-11-20T17:46:07.005Z,100506.56
2022-11-20T17:48:34.689Z,100518.06
2022-11-20T17:51:02.455Z,100507.03
2022-11-20T17:53:29.993Z,100483.44
2022-11-20T17:56:17.710Z,100482.22
2022-11-20T17:58:45.273Z,100483.47
2022-11-20T18:01:12.747Z,100477.63
2022-11-20T18:03:40.307Z,100461.97
2022-11-20T18:06:08.479Z,100460.94
2022-11-20T18:08:36.118Z,100455.25
2022-11-20T18:11:17.588Z,100457.38
2022-11-20T18:14:04.157Z,100462.81
2022-11-20T18:16:32.201Z,100455.28
2022-11-20T18:19:00.606Z,100452.16
2022-11-20T18:21:28.517Z,100448.53
2022-11-20T18:23:56.014Z,100443.53
2022-11-20T18:26:23.954Z,100439.06
2022-11-20T18:28:51.867Z,100434.84
2022-11-20T18:31:19.229Z,100429.88
2022-11-20T18:33:47.135Z,100423.50
2022-11-20T18:36:16.042Z,100426.25
2022-11-20T18:38:44.925Z,100423.31
2022-11-20T18:41:32.805Z,100407.06
2022-11-20T18:44:19.295Z,100411.31
2022-11-20T18:46:46.770Z,100407.53
2022-11-20T18:49:14.108Z,100418.28
2022-11-20T18:51:44.190Z,100415.56
2022-11-20T18:54:11.773Z,100416.56
2022-11-20T18:56:39.601Z,100403.13
2022-11-20T18:59:07.874Z,100395.75
2022-11-20T19:01:35.548Z,100393.84
2022-11-20T19:04:09.681Z,100383.91
2022-11-20T19:06:38.364Z,100380.78
2022-11-20T19:09:06.413Z,100378.88
2022-11-20T19:11:34.321Z,100385.19
2022-11-20T19:14:02.308Z,100384.56
2022-11-20T19:16:30.127Z,100373.16
2022-11-20T19:19:03.482Z,100374.41
2022-11-20T19:21:32.072Z,100378.63
2022-11-20T19:23:59.959Z,100360.94
2022-11-20T19:26:27.406Z,100355.84
2022-11-20T19:28:55.028Z,100359.03
2022-11-20T19:31:27.108Z,100357.97
2022-11-20T19:33:58.442Z,100360.66
2022-11-20T19:36:27.030Z,100364.69
2022-11-20T19:38:54.499Z,100366.78
2022-11-20T19:41:29.060Z,100364.69
2022-11-20T19:44:00.311Z,100355.19
2022-11-20T19:46:28.134Z,100363.00
2022-11-20T19:48:55.564Z,100363.00
2022-11-20T19:51:27.003Z,100355.81
2022-11-20T19:53:55.116Z,100352.22
2022-11-20T19:56:22.539Z,100359.59
2022-11-20T19:58:49.968Z,100343.53
2022-11-20T20:01:18.680Z,100339.47
2022-11-20T20:03:46.353Z,100350.31
2022-11-20T20:06:14.852Z,100354.97
2022-11-20T20:08:42.413Z,100350.31
2022-11-20T20:11:23.105Z,100341.06
2022-11-20T20:14:27.909Z,100339.31
2022-11-20T20:16:55.322Z,100331.72
2022-11-20T20:19:22.949Z,100332.53
2022-11-20T20:21:51.507Z,100332.53
2022-11-20T20:24:18.890Z,100327.47
2022-11-20T20:26:46.789Z,100327.31
2022-11-20T20:29:14.245Z,100330.50
2022-11-20T20:31:41.923Z,100334.66
2022-11-20T20:34:09.415Z,100334.88
2022-11-20T20:36:37.569Z,100327.91
2022-11-20T20:39:05.046Z,100334.63
2022-11-20T20:41:32.680Z,100333.34
2022-11-20T20:44:18.651Z,100336.50
2022-11-20T20:46:46.314Z,100336.25
2022-11-20T20:49:13.638Z,100344.28
2022-11-20T20:51:41.030Z,100344.75
2022-11-20T20:54:08.431Z,100336.13
2022-11-20T20:56:36.001Z,100342.06
2022-11-20T20:59:03.833Z,100343.53
2022-11-20T21:01:31.559Z,100342.06
2022-11-20T21:03:59.160Z,100343.34
2022-11-20T21:06:26.741Z,100331.94
2022-11-20T21:08:57.440Z,100326.47
2022-11-20T21:11:25.033Z,100330.63
2022-11-20T21:13:52.435Z,100329.09
2022-11-20T21:16:20.746Z,100330.59
2022-11-20T21:18:48.961Z,100335.69
2022-11-20T21:21:34.712Z,100328.69
2022-11-20T21:24:03.954Z,100324.59
2022-11-20T21:26:31.363Z,100327.47
2022-11-20T21:28:59.205Z,100321.38
2022-11-20T21:31:26.984Z,100320.72
2022-11-20T21:33:55.334Z,100308.28
2022-11-20T21:36:23.663Z,100311.66
2022-11-20T21:38:52.121Z,100310.34
2022-11-20T21:41:19.491Z,100310.31
2022-11-20T21:43:51.569Z,100308.75
2022-11-20T21:46:26.336Z,100301.78
2022-11-20T21:48:53.917Z,100287.66
2022-11-20T21:51:21.989Z,100287.66
2022-11-20T21:53:49.600Z,100282.16
2022-11-20T21:56:20.265Z,100274.78
2022-11-20T21:58:49.322Z,100267.97
2022-11-20T22:01:17.937Z,100282.16
2022-11-20T22:04:04.449Z,100276.22
2022-11-20T22:06:35.486Z,100285.22
2022-11-20T22:09:03.212Z,100278.88
2022-11-20T22:11:31.025Z,100273.81
2022-11-20T22:14:17.427Z,100273.16
2022-11-20T22:16:45.120Z,100265.16
2022-11-20T22:19:15.511Z,100263.44
2022-11-20T22:21:42.938Z,100255.44
2022-11-20T22:24:13.332Z,100262.78
2022-11-20T22:26:41.894Z,100259.00
2022-11-20T22:29:12.566Z,100246.56
2022-11-20T22:31:40.056Z,100241.31
2022-11-20T22:34:09.337Z,100246.06
2022-11-20T22:36:36.838Z,100231.75
2022-11-20T22:39:04.492Z,100226.91
2022-11-20T22:41:31.966Z,100221.84
2022-11-20T22:43:59.905Z,100219.47
2022-11-20T22:46:27.757Z,100206.56
2022-11-20T22:48:55.866Z,100200.75
2022-11-20T22:51:24.404Z,100202.75
2022-11-20T22:53:51.880Z,100193.00
2022-11-20T22:56:19.503Z,100193.69
2022-11-20T22:58:47.966Z,100197.09
2022-11-20T23:01:22.421Z,100198.31
2022-11-20T23:03:50.821Z,100189.69
2022-11-20T23:06:18.617Z,100186.09
2022-11-20T23:08:46.430Z,100186.66
2022-11-20T23:11:19.871Z,100191.69
2022-11-20T23:13:47.595Z,100191.25
2022-11-20T23:16:17.396Z,100194.28
2022-11-20T23:18:46.044Z,100187.66
2022-11-20T23:21:16.066Z,100193.31
2022-11-20T23:23:43.518Z,100193.94
2022-11-20T23:26:11.911Z,100203.13
2022-11-20T23:28:40.024Z,100194.25
2022-11-20T23:31:07.481Z,100203.75
2022-11-20T23:33:35.590Z,100213.84
2022-11-20T23:36:03.451Z,100212.81
2022-11-20T23:38:31.221Z,100219.16
2022-11-20T23:40:59.715Z,100219.13
2022-11-20T23:43:27.078Z,100218.25
2022-11-20T23:45:55.365Z,100224.97
2022-11-20T23:48:23.544Z,100212.88
2022-11-20T23:50:51.042Z,100214.13
2022-11-20T23:53:18.383Z,100215.78
2022-11-20T23:55:49.778Z,100199.59
2022-11-20T23:58:17.475Z,100207.53
